Aviation Digital Data Service (ADDS)

Output produced by METARs form (0950 UTC 22 August 2014)
found at http://aviationweather.gov/adds/metars/
 
KCDW 220853Z AUTO 00000KT 8SM OVC018 18/17 A3002 RMK AO2 SLP170 60000 T01830172 55001 TSNO
KMMU 220935Z AUTO 00000KT 7SM CLR 19/17 A3000 RMK AO2
KFWN 220853Z AUTO 04003KT 8SM OVC012 19/18 RMK AO2 RAE53 SLPNO P0003 60005 T01940178 $
KTEB 220851Z 32004KT 9SM BKN018 BKN027 19/18 A3000 RMK AO2 SLP159 60000 T01940178 55005 $
KTEB 220839Z 2209/2306 13006KT P6SM BKN015 
     FM221400 10007KT P6SM SCT025 OVC040 
     FM230200 09005KT P6SM BKN020 OVC035
       
KEWR 220851Z 00000KT 10SM FEW012 BKN016 OVC160 20/18 A3001 RMK AO2 RAE0759 SLP160 P0000 60015 T02000178 56008 $
KEWR 220839Z 2209/2312 VRB03KT P6SM SCT015 BKN040 
     FM221000 12005KT P6SM BKN020 
     FM221400 11008KT P6SM SCT025 OVC040 
     FM230200 07008KT P6SM BKN020 OVC040
       
KABE 220851Z 05005KT 9SM OVC007 19/18 A3000 RMK AO2 SLP155 60016 T01940178 58003
KABE 220906Z 2209/2306 05005KT P6SM SCT007 OVC015 
     TEMPO 2209/2213 4SM -SHRA BR BKN007 OVC015 
     FM221300 08004KT P6SM OVC020 
     FM221700 09006KT P6SM -SHRA BKN035 
     FM230300 09006KT P6SM OVC020
       
KAVP 220914Z 10004KT 10SM BKN019 OVC075 19/18 A3000 RMK AO2
KAVP 220855Z 2209/2306 VRB03KT P6SM SCT022 BKN040 
     TEMPO 2209/2213 BKN022 
     FM221300 21004KT P6SM BKN040 
     FM221800 VRB03KT 5SM SHRA BR BKN025 OVC035 
     FM230000 VRB03KT P6SM BKN070
       
KSWF 220945Z 00000KT 10SM SCT015 OVC025 18/18 A3004
KSWF 220839Z 2209/2312 VRB05KT P6SM BKN035 
     FM221500 11007KT 6SM BR SCT025 OVC035 
     FM230000 10007KT P6SM OVC030 
     FM230700 09005KT 5SM BR OVC018 AMD NOT SKED
       
KMSV 220935Z AUTO 10003KT 3SM OVC002 17/17 A3005 RMK AO1
KPOU 220853Z AUTO 15003KT 10SM OVC016 19/17 A3001 RMK AO2 SLP158 T01940172 50000
KPOU 220745Z 2208/2306 VRB03KT P6SM BKN015 OVC040 
     FM221400 08004KT 5SM -DZ BR SCT008 OVC015 
     FM221900 06005KT P6SM VCSH SCT015 BKN030 OVC050